createdAt,value
2019-02-18T00:00:42.829Z,98933.15
2019-02-18T00:05:48.104Z,98934.30
2019-02-18T00:10:53.367Z,98933.83
2019-02-18T00:15:59.440Z,98939.25
2019-02-18T00:21:05.120Z,98929.41
2019-02-18T00:26:10.720Z,98932.53
2019-02-18T00:31:16.364Z,98925.97
2019-02-18T00:36:21.619Z,98930.59
2019-02-18T00:41:27.121Z,98924.86
2019-02-18T00:46:32.313Z,98920.91
2019-02-18T00:51:37.823Z,98917.61
2019-02-18T00:56:43.175Z,98917.80
2019-02-18T01:01:48.372Z,98912.68
2019-02-18T01:06:53.638Z,98916.98
2019-02-18T01:11:59.753Z,98911.23
2019-02-18T01:17:05.058Z,98919.27
2019-02-18T01:22:10.259Z,98914.00
2019-02-18T01:27:15.424Z,98910.09
2019-02-18T01:32:20.687Z,98910.39
2019-02-18T01:37:26.207Z,98913.46
2019-02-18T01:42:32.018Z,98910.34
2019-02-18T01:47:37.965Z,98902.64
2019-02-18T01:52:43.142Z,98901.63
2019-02-18T01:57:48.860Z,98900.97
2019-02-18T02:02:55.682Z,98901.98
2019-02-18T02:08:00.952Z,98882.30
2019-02-18T02:13:41.515Z,98872.30
2019-02-18T02:18:46.693Z,98870.33
2019-02-18T02:23:52.312Z,98869.51
2019-02-18T02:28:57.570Z,98867.88
2019-02-18T02:34:02.829Z,98859.64
2019-02-18T02:39:08.424Z,98859.64
2019-02-18T02:44:13.876Z,98852.95
2019-02-18T02:49:20.110Z,98844.23
2019-02-18T02:54:26.050Z,98846.02
2019-02-18T02:59:31.228Z,98839.28
2019-02-18T03:04:36.486Z,98838.28
2019-02-18T03:09:41.943Z,98842.69
2019-02-18T03:14:47.616Z,98837.91
2019-02-18T03:19:52.792Z,98833.99
2019-02-18T03:25:18.453Z,98841.85
2019-02-18T03:30:33.964Z,98835.93
2019-02-18T03:35:39.984Z,98839.19
2019-02-18T03:40:45.505Z,98847.05
2019-02-18T03:45:51.078Z,98838.48
2019-02-18T03:50:56.411Z,98835.32
2019-02-18T03:56:02.432Z,98838.56
2019-02-18T04:01:07.595Z,98830.20
2019-02-18T04:06:12.774Z,98829.27
2019-02-18T04:11:18.675Z,98831.94
2019-02-18T04:16:24.159Z,98834.79
2019-02-18T04:21:29.324Z,98822.85
2019-02-18T04:26:34.756Z,98833.48
2019-02-18T04:31:40.273Z,98835.25
2019-02-18T04:36:45.335Z,98832.59
2019-02-18T04:41:50.421Z,98843.38
2019-02-18T04:46:56.258Z,98836.96
2019-02-18T04:52:01.316Z,98832.34
2019-02-18T04:57:06.461Z,98835.59
2019-02-18T05:02:11.873Z,98828.00
2019-02-18T05:07:16.946Z,98832.66
2019-02-18T05:12:22.086Z,98831.41
2019-02-18T05:17:27.576Z,98828.89
2019-02-18T05:22:33.094Z,98828.81
2019-02-18T05:27:38.181Z,98826.61
2019-02-18T05:32:43.600Z,98827.19
2019-02-18T05:37:48.684Z,98824.81
2019-02-18T05:42:54.695Z,98825.26
2019-02-18T05:48:00.285Z,98818.49
2019-02-18T05:53:05.521Z,98825.44
2019-02-18T05:58:10.507Z,98832.28
2019-02-18T06:03:16.415Z,98823.80
2019-02-18T06:08:21.478Z,98829.36
2019-02-18T06:13:26.812Z,98834.23
2019-02-18T06:18:32.515Z,98826.25
2019-02-18T06:23:37.938Z,98831.67
2019-02-18T06:28:43.723Z,98839.41
2019-02-18T06:33:49.208Z,98831.05
2019-02-18T06:38:54.307Z,98835.96
2019-02-18T06:44:00.038Z,98837.30
2019-02-18T06:49:25.829Z,98831.33
2019-02-18T06:54:31.254Z,98837.23
2019-02-18T06:59:55.365Z,98854.66
2019-02-18T07:05:23.956Z,98853.96
2019-02-18T07:10:43.138Z,98871.20
2019-02-18T07:15:48.569Z,98861.37
2019-02-18T07:20:54.305Z,98862.87
2019-02-18T07:25:59.298Z,98865.52
2019-02-18T07:31:04.397Z,98866.19
2019-02-18T07:36:09.891Z,98860.47
2019-02-18T07:41:15.323Z,98859.73
2019-02-18T07:46:21.036Z,98867.80
2019-02-18T07:51:26.591Z,98857.77
2019-02-18T07:56:31.741Z,98857.49
2019-02-18T08:01:36.806Z,98862.06
2019-02-18T08:06:43.157Z,98849.20
2019-02-18T08:11:48.645Z,98856.81
2019-02-18T08:16:54.133Z,98852.75
2019-02-18T08:21:59.619Z,98854.10
2019-02-18T08:27:04.866Z,98848.38
2019-02-18T08:32:10.966Z,98846.70
2019-02-18T08:37:16.262Z,98839.29
2019-02-18T08:42:21.405Z,98843.52
2019-02-18T08:47:26.437Z,98843.17
2019-02-18T08:52:31.574Z,98838.84
2019-02-18T08:57:37.141Z,98827.52
2019-02-18T09:02:42.489Z,98818.16
2019-02-18T09:07:47.657Z,98825.33
2019-02-18T09:12:53.078Z,98821.02
2019-02-18T09:17:58.307Z,98813.36
2019-02-18T09:23:15.242Z,98806.52
2019-02-18T09:28:20.714Z,98803.45
2019-02-18T09:33:26.230Z,98809.84
2019-02-18T09:38:32.215Z,98805.33
2019-02-18T09:43:37.654Z,98802.09
2019-02-18T09:48:43.800Z,98804.42
2019-02-18T09:53:49.327Z,98801.39
2019-02-18T09:58:54.558Z,98799.01
2019-02-18T10:04:00.167Z,98796.59
2019-02-18T10:09:07.141Z,98794.56
2019-02-18T10:14:12.818Z,98787.39
2019-02-18T10:19:18.041Z,98786.41
2019-02-18T10:24:23.105Z,98791.24
2019-02-18T10:29:28.576Z,98778.26
2019-02-18T10:34:33.738Z,98775.80
2019-02-18T10:39:38.901Z,98767.86
2019-02-18T10:44:44.388Z,98758.98
2019-02-18T10:49:49.683Z,98756.77
2019-02-18T10:54:54.935Z,98746.80
2019-02-18T11:00:00.407Z,98744.36
2019-02-18T11:05:07.591Z,98744.14
2019-02-18T11:10:13.981Z,98739.62
2019-02-18T11:15:19.337Z,98737.55
2019-02-18T11:20:24.676Z,98729.28
2019-02-18T11:25:30.189Z,98717.80
2019-02-18T11:30:35.808Z,98714.17
2019-02-18T11:35:41.777Z,98710.59
2019-02-18T11:40:47.052Z,98703.90
2019-02-18T11:45:52.212Z,98700.10
2019-02-18T11:50:57.374Z,98691.90
2019-02-18T11:56:02.591Z,98685.02
2019-02-18T12:01:08.824Z,98672.73
2019-02-18T12:06:14.067Z,98663.78
2019-02-18T12:11:19.442Z,98658.34
2019-02-18T12:16:25.331Z,98647.10
2019-02-18T12:21:30.767Z,98640.17
2019-02-18T12:26:35.920Z,98636.16
2019-02-18T12:31:40.994Z,98630.31
2019-02-18T12:36:46.522Z,98619.41
2019-02-18T12:41:53.106Z,98613.08
2019-02-18T12:46:58.246Z,98608.56
2019-02-18T12:52:04.130Z,98598.62
2019-02-18T12:57:09.833Z,98594.05
2019-02-18T13:02:14.988Z,98584.92
2019-02-18T13:07:21.040Z,98569.97
2019-02-18T13:12:27.481Z,98558.97
2019-02-18T13:17:32.548Z,98553.70
2019-02-18T13:22:38.416Z,98549.94
2019-02-18T13:27:43.655Z,98545.67
2019-02-18T13:32:49.263Z,98535.17
2019-02-18T13:37:54.674Z,98524.39
2019-02-18T13:43:00.138Z,98520.91
2019-02-18T13:48:05.363Z,98512.23
2019-02-18T13:53:10.600Z,98505.88
2019-02-18T13:58:15.828Z,98501.95
2019-02-18T14:03:20.970Z,98490.64
2019-02-18T14:08:26.203Z,98490.18
2019-02-18T14:13:31.707Z,98487.47
2019-02-18T14:18:37.220Z,98478.64
2019-02-18T14:23:43.439Z,98476.59
2019-02-18T14:28:48.582Z,98472.53
2019-02-18T14:33:55.665Z,98467.39
2019-02-18T14:39:00.847Z,98474.98
2019-02-18T14:44:08.101Z,98472.41
2019-02-18T14:49:13.733Z,98466.77
2019-02-18T14:54:19.458Z,98457.34
2019-02-18T14:59:24.686Z,98460.03
2019-02-18T15:04:29.820Z,98458.14
2019-02-18T15:09:35.061Z,98453.23
2019-02-18T15:14:40.215Z,98443.33
2019-02-18T15:19:45.366Z,98441.27
2019-02-18T15:24:50.521Z,98435.60
2019-02-18T15:29:56.129Z,98431.52
2019-02-18T15:35:03.105Z,98431.46
2019-02-18T15:40:10.032Z,98422.36
2019-02-18T15:45:15.877Z,98426.22
2019-02-18T15:50:21.423Z,98417.92
2019-02-18T15:55:28.612Z,98424.13
2019-02-18T16:00:34.504Z,98417.09
2019-02-18T16:05:40.691Z,98423.86
2019-02-18T16:10:45.843Z,98426.48
2019-02-18T16:15:51.327Z,98425.98
2019-02-18T16:20:56.696Z,98422.39
2019-02-18T16:26:02.805Z,98428.30
2019-02-18T16:31:08.497Z,98427.44
2019-02-18T16:36:13.745Z,98434.39
2019-02-18T16:41:18.977Z,98430.61
2019-02-18T16:46:24.243Z,98429.60
2019-02-18T16:51:30.231Z,98426.70
2019-02-18T16:56:35.447Z,98433.98
2019-02-18T17:01:41.015Z,98446.74
2019-02-18T17:06:46.591Z,98450.44
2019-02-18T17:11:51.727Z,98448.81
2019-02-18T17:16:56.965Z,98452.79
2019-02-18T17:22:02.512Z,98448.58
2019-02-18T17:27:08.036Z,98451.80
2019-02-18T17:32:14.602Z,98448.22
2019-02-18T17:37:20.389Z,98443.91
2019-02-18T17:42:26.001Z,98442.44
2019-02-18T17:47:31.204Z,98446.14
2019-02-18T17:52:36.770Z,98447.30
2019-02-18T17:57:41.904Z,98448.58
2019-02-18T18:02:47.086Z,98443.66
2019-02-18T18:07:52.336Z,98450.45
2019-02-18T18:12:58.744Z,98450.77
2019-02-18T18:18:04.035Z,98448.23
2019-02-18T18:23:09.277Z,98444.88
2019-02-18T18:28:14.562Z,98440.58
2019-02-18T18:33:19.702Z,98434.89
2019-02-18T18:38:24.952Z,98435.80
2019-02-18T18:43:33.848Z,98431.92
2019-02-18T18:48:37.209Z,98432.52
2019-02-18T18:53:42.821Z,98439.71
2019-02-18T18:58:48.162Z,98430.48
2019-02-18T19:03:54.543Z,98431.94
2019-02-18T19:09:01.462Z,98431.28
2019-02-18T19:14:07.704Z,98431.73
2019-02-18T19:19:12.960Z,98434.08
2019-02-18T19:24:18.123Z,98432.48
2019-02-18T19:29:24.181Z,98430.90
2019-02-18T19:34:29.608Z,98430.22
2019-02-18T19:39:34.781Z,98436.90
2019-02-18T19:44:39.994Z,98441.83
2019-02-18T19:49:46.001Z,98442.80
2019-02-18T19:54:51.639Z,98430.08
2019-02-18T19:59:56.858Z,98433.00
2019-02-18T20:05:02.085Z,98427.94
2019-02-18T20:10:08.143Z,98432.02
2019-02-18T20:15:13.486Z,98428.34
2019-02-18T20:20:18.958Z,98427.06
2019-02-18T20:25:24.417Z,98418.08
2019-02-18T20:30:29.950Z,98427.11
2019-02-18T20:35:35.754Z,98423.03
2019-02-18T20:40:41.505Z,98424.84
2019-02-18T20:45:47.394Z,98428.56
2019-02-18T20:50:52.685Z,98421.44
2019-02-18T20:55:58.592Z,98419.63
2019-02-18T21:01:03.907Z,98416.78
2019-02-18T21:06:09.451Z,98419.20
2019-02-18T21:11:17.506Z,98412.34
2019-02-18T21:16:22.828Z,98410.38
2019-02-18T21:21:28.185Z,98399.77
2019-02-18T21:26:36.653Z,98393.96
2019-02-18T21:31:41.826Z,98400.14
2019-02-18T21:36:48.356Z,98400.27
2019-02-18T21:41:54.388Z,98394.70
2019-02-18T21:46:59.680Z,98392.20
2019-02-18T21:52:06.273Z,98381.06
2019-02-18T21:57:12.046Z,98390.13
2019-02-18T22:02:19.141Z,98399.44
2019-02-18T22:07:24.563Z,98401.21
2019-02-18T22:12:30.647Z,98394.11
2019-02-18T22:17:35.805Z,98396.77
2019-02-18T22:22:41.608Z,98395.89
2019-02-18T22:27:46.833Z,98395.63
2019-02-18T22:32:52.055Z,98395.05
2019-02-18T22:37:57.328Z,98391.23
2019-02-18T22:43:02.556Z,98398.28
2019-02-18T22:48:08.123Z,98394.44
2019-02-18T22:53:14.127Z,98397.17
2019-02-18T22:58:19.486Z,98386.79
2019-02-18T23:03:24.757Z,98387.75
2019-02-18T23:08:30.358Z,98381.23
2019-02-18T23:13:35.958Z,98387.58
2019-02-18T23:18:41.432Z,98374.94
2019-02-18T23:23:46.980Z,98381.23
2019-02-18T23:28:52.401Z,98383.28
2019-02-18T23:33:57.547Z,98382.50
2019-02-18T23:39:04.079Z,98382.65
2019-02-18T23:44:10.402Z,98383.91
2019-02-18T23:49:15.554Z,98379.48
2019-02-18T23:54:22.220Z,98384.44
2019-02-18T23:59:27.509Z,98381.86
